Wayside, West Virginia
Current Conditions -  °F | °C
As of 6:15 AM on Friday 24 Oct 2014 (Local Time) from KLWB Reporting Station
Haze Haze  
Wind Chill: 37°   Ceiling: Unl
Heat Index: 37°   Visibility: 5mi
Dew Point: 35°   Wind: 0mph
Humidity: 95%   Direction: NA
Pressure: 30.08"   Gusts: NA
Location:  37.59°N, 80.69°W
Report Text: KLWB 241015Z AUTO 00000KT 5SM BR CLR 03/02 A3008 RMK AO2 T00260018
Loading
Personal Weather Stations






























Interactive Weather Map
Tropical Storm Tracking
New forecast layout! Learn more

10-Day Weather Forecast

Advertisements
Track Severe Weather on mobile